createdAt,value
2023-05-21T00:00:17.956Z,99.16
2023-05-21T00:02:45.951Z,98.54
2023-05-21T00:05:15.580Z,99.06
2023-05-21T00:07:43.676Z,99.04
2023-05-21T00:10:13.217Z,100.00
2023-05-21T00:12:41.991Z,100.00
2023-05-21T00:15:11.095Z,100.00
2023-05-21T00:17:40.163Z,100.00
2023-05-21T00:20:10.174Z,100.00
2023-05-21T00:22:38.187Z,100.00
2023-05-21T00:25:07.073Z,100.00
2023-05-21T00:27:36.454Z,100.00
2023-05-21T00:30:04.828Z,100.00
2023-05-21T00:32:32.817Z,100.00
2023-05-21T00:35:00.810Z,100.00
2023-05-21T00:37:29.922Z,100.00
2023-05-21T00:39:58.464Z,100.00
2023-05-21T00:42:27.413Z,100.00
2023-05-21T00:44:57.023Z,100.00
2023-05-21T00:47:27.017Z,100.00
2023-05-21T00:49:55.763Z,100.00
2023-05-21T00:52:26.854Z,100.00
2023-05-21T00:54:55.366Z,100.00
2023-05-21T00:57:27.130Z,100.00
2023-05-21T00:59:56.785Z,100.00
2023-05-21T01:02:26.163Z,100.00
2023-05-21T01:04:56.284Z,100.00
2023-05-21T01:07:24.344Z,100.00
2023-05-21T01:09:52.478Z,100.00
2023-05-21T01:12:21.851Z,100.00
2023-05-21T01:14:50.724Z,100.00
2023-05-21T01:17:24.376Z,100.00
2023-05-21T01:19:54.777Z,100.00
2023-05-21T01:22:25.161Z,100.00
2023-05-21T01:24:55.637Z,100.00
2023-05-21T01:27:23.633Z,100.00
2023-05-21T01:29:51.631Z,100.00
2023-05-21T01:32:26.933Z,100.00
2023-05-21T01:35:01.334Z,100.00
2023-05-21T01:37:36.240Z,100.00
2023-05-21T01:40:11.923Z,100.00
2023-05-21T01:42:44.378Z,100.00
2023-05-21T01:45:13.577Z,100.00
2023-05-21T01:47:42.370Z,100.00
2023-05-21T01:50:11.323Z,100.00
2023-05-21T01:52:39.293Z,100.00
2023-05-21T01:55:09.215Z,100.00
2023-05-21T01:57:37.160Z,100.00
2023-05-21T02:00:06.103Z,100.00
2023-05-21T02:02:34.094Z,100.00
2023-05-21T02:05:02.050Z,100.00
2023-05-21T02:07:32.648Z,100.00
2023-05-21T02:10:00.762Z,100.00
2023-05-21T02:12:30.116Z,100.00
2023-05-21T02:14:58.623Z,100.00
2023-05-21T02:17:26.838Z,100.00
2023-05-21T02:19:54.835Z,100.00
2023-05-21T02:22:22.818Z,100.00
2023-05-21T02:24:50.762Z,100.00
2023-05-21T02:27:18.798Z,100.00
2023-05-21T02:29:48.104Z,100.00
2023-05-21T02:32:16.985Z,100.00
2023-05-21T02:34:47.404Z,100.00
2023-05-21T02:37:15.433Z,100.00
2023-05-21T02:39:43.381Z,100.00
2023-05-21T02:42:11.316Z,100.00
2023-05-21T02:44:39.288Z,100.00
2023-05-21T02:47:10.398Z,100.00
2023-05-21T02:49:38.391Z,100.00
2023-05-21T02:52:06.790Z,100.00
2023-05-21T02:54:34.735Z,100.00
2023-05-21T02:57:02.694Z,100.00
2023-05-21T02:59:30.689Z,100.00
2023-05-21T03:01:58.622Z,100.00
2023-05-21T03:04:28.419Z,100.00
2023-05-21T03:06:56.601Z,100.00
2023-05-21T03:09:25.036Z,100.00
2023-05-21T03:11:53.006Z,100.00
2023-05-21T03:14:20.939Z,100.00
2023-05-21T03:16:49.262Z,100.00
2023-05-21T03:19:17.257Z,100.00
2023-05-21T03:21:46.869Z,100.00
2023-05-21T03:24:15.383Z,100.00
2023-05-21T03:26:43.359Z,100.00
2023-05-21T03:29:11.293Z,100.00
2023-05-21T03:31:39.221Z,100.00
2023-05-21T03:34:08.660Z,100.00
2023-05-21T03:36:36.667Z,100.00
2023-05-21T03:39:07.096Z,100.00
2023-05-21T03:41:35.022Z,100.00
2023-05-21T03:44:03.052Z,100.00
2023-05-21T03:46:31.034Z,100.00
2023-05-21T03:48:59.300Z,100.00
2023-05-21T03:51:27.529Z,100.00
2023-05-21T03:53:55.505Z,100.00
2023-05-21T03:56:24.870Z,100.00
2023-05-21T03:58:52.854Z,100.00
2023-05-21T04:01:20.830Z,100.00
2023-05-21T04:03:49.007Z,100.00
2023-05-21T04:06:19.109Z,100.00
2023-05-21T04:08:47.038Z,100.00
2023-05-21T04:11:14.980Z,100.00
2023-05-21T04:13:44.334Z,100.00
2023-05-21T04:16:14.753Z,100.00
2023-05-21T04:18:44.929Z,100.00
2023-05-21T04:21:14.199Z,100.00
2023-05-21T04:23:42.271Z,100.00
2023-05-21T04:26:10.230Z,100.00
2023-05-21T04:28:38.163Z,100.00
2023-05-21T04:31:08.763Z,100.00
2023-05-21T04:33:36.772Z,100.00
2023-05-21T04:36:05.057Z,99.78
2023-05-21T04:38:33.412Z,97.90
2023-05-21T04:41:03.884Z,94.04
2023-05-21T04:43:32.133Z,92.15
2023-05-21T04:46:00.099Z,89.22
2023-05-21T04:48:29.549Z,88.82
2023-05-21T04:50:57.623Z,89.72
2023-05-21T04:53:26.215Z,87.76
2023-05-21T04:55:54.301Z,87.67
2023-05-21T04:58:22.251Z,88.18
2023-05-21T05:00:51.789Z,86.38
2023-05-21T05:03:19.917Z,88.94
2023-05-21T05:05:49.314Z,84.91
2023-05-21T05:08:17.271Z,84.08
2023-05-21T05:10:45.259Z,84.72
2023-05-21T05:13:13.452Z,82.70
2023-05-21T05:15:41.450Z,81.18
2023-05-21T05:18:09.669Z,79.70
2023-05-21T05:20:37.695Z,79.12
2023-05-21T05:23:07.047Z,81.91
2023-05-21T05:25:35.064Z,79.89
2023-05-21T05:28:03.069Z,78.69
2023-05-21T05:30:31.080Z,85.46
2023-05-21T05:32:59.095Z,81.58
2023-05-21T05:35:27.092Z,80.56
2023-05-21T05:37:55.038Z,80.94
2023-05-21T05:40:24.365Z,80.02
2023-05-21T05:42:52.840Z,82.72
2023-05-21T05:45:21.201Z,79.74
2023-05-21T05:47:49.187Z,82.03
2023-05-21T05:50:17.194Z,80.39
2023-05-21T05:52:45.115Z,81.89
2023-05-21T05:55:13.159Z,82.79
2023-05-21T05:57:44.453Z,81.17
2023-05-21T06:00:14.760Z,82.07
2023-05-21T06:02:42.777Z,82.73
2023-05-21T06:05:11.656Z,79.36
2023-05-21T06:07:39.918Z,79.13
2023-05-21T06:10:08.520Z,81.18
2023-05-21T06:12:36.634Z,77.72
2023-05-21T06:15:06.908Z,78.98
2023-05-21T06:17:34.960Z,78.34
2023-05-21T06:20:03.074Z,76.50
2023-05-21T06:22:31.158Z,75.17
2023-05-21T06:24:59.107Z,77.59
2023-05-21T06:27:27.037Z,72.44
2023-05-21T06:29:55.002Z,75.82
2023-05-21T06:32:24.473Z,77.02
2023-05-21T06:34:52.482Z,75.13
2023-05-21T06:37:22.065Z,73.89
2023-05-21T06:39:50.104Z,75.61
2023-05-21T06:42:18.077Z,77.22
2023-05-21T06:44:46.120Z,73.26
2023-05-21T06:47:14.083Z,72.20
2023-05-21T06:49:43.442Z,70.18
2023-05-21T06:52:11.434Z,71.97
2023-05-21T06:54:39.446Z,71.22
2023-05-21T06:57:07.406Z,68.08
2023-05-21T06:59:35.473Z,70.76
2023-05-21T07:02:04.789Z,70.74
2023-05-21T07:04:35.251Z,68.41
2023-05-21T07:07:04.980Z,63.93
2023-05-21T07:09:33.064Z,66.28
2023-05-21T07:12:01.344Z,66.82
2023-05-21T07:14:29.298Z,67.57
2023-05-21T07:16:57.331Z,63.51
2023-05-21T07:19:25.468Z,65.20
2023-05-21T07:21:53.549Z,62.36
2023-05-21T07:24:22.888Z,67.27
2023-05-21T07:26:51.104Z,65.47
2023-05-21T07:29:19.078Z,65.40
2023-05-21T07:31:47.016Z,64.33
2023-05-21T07:34:15.009Z,59.86
2023-05-21T07:36:42.988Z,63.98
2023-05-21T07:39:11.086Z,64.64
2023-05-21T07:41:40.412Z,62.27
2023-05-21T07:44:08.375Z,61.47
2023-05-21T07:46:36.352Z,59.34
2023-05-21T07:49:04.318Z,58.21
2023-05-21T07:51:32.406Z,61.90
2023-05-21T07:54:00.341Z,62.54
2023-05-21T07:56:28.984Z,59.20
2023-05-21T07:58:58.330Z,62.35
2023-05-21T08:01:26.293Z,58.16
2023-05-21T08:03:54.342Z,60.22
2023-05-21T08:06:24.452Z,56.43
2023-05-21T08:08:52.392Z,60.46
2023-05-21T08:11:20.325Z,58.08
2023-05-21T08:13:48.260Z,62.80
2023-05-21T08:16:17.712Z,55.99
2023-05-21T08:18:45.780Z,55.51
2023-05-21T08:21:13.776Z,54.21
2023-05-21T08:23:41.702Z,56.67
2023-05-21T08:26:09.714Z,53.92
2023-05-21T08:28:39.646Z,59.59
2023-05-21T08:31:07.695Z,53.42
2023-05-21T08:33:38.531Z,55.01
2023-05-21T08:36:07.365Z,50.34
2023-05-21T08:38:36.469Z,51.17
2023-05-21T08:41:09.994Z,53.24
2023-05-21T08:43:38.387Z,53.76
2023-05-21T08:46:07.974Z,56.87
2023-05-21T08:48:38.261Z,53.96
2023-05-21T08:51:07.235Z,54.63
2023-05-21T08:53:35.501Z,53.33
2023-05-21T08:56:03.926Z,51.00
2023-05-21T08:58:33.909Z,51.21
2023-05-21T09:01:01.915Z,51.07
2023-05-21T09:03:31.879Z,51.97
2023-05-21T09:06:01.727Z,48.93
2023-05-21T09:08:33.014Z,50.27
2023-05-21T09:11:03.461Z,51.02
2023-05-21T09:13:32.842Z,56.05
2023-05-21T09:16:00.945Z,51.56
2023-05-21T09:18:28.892Z,51.13
2023-05-21T09:20:57.618Z,50.31
2023-05-21T09:23:29.958Z,51.63
2023-05-21T09:25:58.465Z,49.63
2023-05-21T09:28:26.546Z,49.39
2023-05-21T09:30:54.711Z,49.71
2023-05-21T09:33:26.226Z,47.40
2023-05-21T09:35:54.292Z,47.00
2023-05-21T09:38:24.038Z,47.33
2023-05-21T09:40:56.315Z,46.86
2023-05-21T09:43:24.325Z,48.84
2023-05-21T09:45:53.645Z,45.47
2023-05-21T09:48:34.749Z,44.05
2023-05-21T09:51:13.523Z,43.13
2023-05-21T09:53:46.248Z,44.55
2023-05-21T09:56:15.592Z,45.49
2023-05-21T09:58:44.298Z,43.50
2023-05-21T10:01:12.547Z,44.47
2023-05-21T10:03:41.131Z,44.57
2023-05-21T10:06:10.193Z,45.69
2023-05-21T10:08:43.652Z,46.21
2023-05-21T10:11:13.063Z,46.34
2023-05-21T10:13:49.548Z,45.64
2023-05-21T10:16:18.466Z,45.54
2023-05-21T10:18:49.281Z,48.89
2023-05-21T10:21:18.116Z,45.53
2023-05-21T10:23:47.427Z,45.38
2023-05-21T10:26:15.734Z,44.99
2023-05-21T10:28:45.755Z,41.77
2023-05-21T10:31:14.313Z,41.22
2023-05-21T10:33:43.768Z,43.27
2023-05-21T10:36:11.870Z,45.96
2023-05-21T10:38:40.355Z,45.45
2023-05-21T10:41:09.540Z,44.69
2023-05-21T10:43:54.107Z,43.93
2023-05-21T10:47:09.402Z,43.32
2023-05-21T10:49:53.325Z,45.17
2023-05-21T10:52:35.054Z,42.78
2023-05-21T10:55:24.587Z,42.25
2023-05-21T10:58:30.294Z,42.69
2023-05-21T11:01:01.635Z,44.60
2023-05-21T11:03:32.077Z,41.85
2023-05-21T11:06:05.383Z,41.46
2023-05-21T11:08:36.325Z,41.57
2023-05-21T11:11:05.191Z,38.04
2023-05-21T11:13:48.822Z,38.61
2023-05-21T11:16:21.779Z,38.90
2023-05-21T11:18:59.165Z,40.69
2023-05-21T11:21:31.264Z,40.90
2023-05-21T11:24:08.809Z,41.53
2023-05-21T11:27:06.860Z,42.71
2023-05-21T11:29:42.727Z,41.85
2023-05-21T11:32:15.207Z,40.71
2023-05-21T11:34:46.193Z,42.26
2023-05-21T11:37:30.178Z,41.35
2023-05-21T11:39:59.975Z,41.94
2023-05-21T11:42:32.971Z,39.84
2023-05-21T11:45:02.464Z,40.61
2023-05-21T11:47:33.304Z,40.47
2023-05-21T11:50:02.509Z,40.48
2023-05-21T11:52:31.789Z,42.41
2023-05-21T11:55:00.286Z,39.13
2023-05-21T11:57:31.276Z,40.90
2023-05-21T12:00:01.512Z,41.44
2023-05-21T12:02:37.309Z,40.69
2023-05-21T12:05:06.456Z,42.65
2023-05-21T12:07:34.735Z,41.82
2023-05-21T12:10:02.781Z,44.29
2023-05-21T12:12:45.679Z,40.42
2023-05-21T12:15:18.995Z,39.85
2023-05-21T12:17:52.937Z,40.87
2023-05-21T12:20:21.430Z,40.09
2023-05-21T12:22:50.326Z,40.34
2023-05-21T12:25:20.600Z,40.62
2023-05-21T12:27:51.012Z,41.01
2023-05-21T12:30:19.188Z,40.59
2023-05-21T12:32:49.925Z,42.09
2023-05-21T12:35:25.049Z,40.54
2023-05-21T12:37:53.401Z,38.42
2023-05-21T12:40:22.339Z,41.17
2023-05-21T12:42:51.779Z,40.81
2023-05-21T12:45:22.116Z,39.75
2023-05-21T12:47:56.316Z,41.22
2023-05-21T12:50:24.762Z,41.63
2023-05-21T12:52:56.121Z,41.81
2023-05-21T12:55:25.816Z,41.92
2023-05-21T12:58:03.676Z,40.67
2023-05-21T13:00:32.973Z,41.87
2023-05-21T13:03:04.588Z,42.49
2023-05-21T13:05:32.918Z,42.70
2023-05-21T13:08:00.884Z,42.94
2023-05-21T13:10:28.863Z,42.60
2023-05-21T13:12:56.823Z,42.63
2023-05-21T13:15:24.792Z,42.41
2023-05-21T13:17:55.152Z,42.88
2023-05-21T13:20:27.558Z,41.29
2023-05-21T13:22:55.869Z,43.12
2023-05-21T13:25:27.526Z,43.13
2023-05-21T13:27:55.819Z,43.66
2023-05-21T13:30:23.886Z,43.90
2023-05-21T13:32:52.328Z,43.46
2023-05-21T13:35:20.643Z,41.95
2023-05-21T13:37:50.132Z,43.47
2023-05-21T13:40:18.318Z,41.80
2023-05-21T13:42:47.806Z,43.43
2023-05-21T13:45:19.031Z,42.59
2023-05-21T13:47:48.161Z,44.75
2023-05-21T13:50:17.556Z,46.05
2023-05-21T13:52:46.103Z,44.72
2023-05-21T13:55:16.925Z,45.31
2023-05-21T13:57:46.049Z,47.16
2023-05-21T14:00:16.244Z,45.27
2023-05-21T14:02:45.225Z,44.17
2023-05-21T14:05:13.585Z,44.94
2023-05-21T14:07:42.031Z,42.17
2023-05-21T14:10:11.335Z,41.98
2023-05-21T14:12:40.970Z,42.04
2023-05-21T14:15:09.804Z,44.51
2023-05-21T14:17:40.335Z,42.06
2023-05-21T14:20:09.948Z,41.32
2023-05-21T14:22:38.823Z,40.25
2023-05-21T14:25:07.589Z,39.32
2023-05-21T14:27:37.915Z,38.30
2023-05-21T14:30:08.884Z,38.67
2023-05-21T14:32:36.897Z,38.60
2023-05-21T14:35:06.262Z,37.74
2023-05-21T14:37:34.255Z,37.89
2023-05-21T14:40:02.230Z,37.37
2023-05-21T14:42:30.703Z,37.85
2023-05-21T14:44:59.053Z,38.58
2023-05-21T14:47:28.474Z,38.19
2023-05-21T14:49:56.428Z,38.47
2023-05-21T14:52:24.382Z,38.30
2023-05-21T14:54:52.329Z,37.31
2023-05-21T14:57:20.878Z,37.90
2023-05-21T14:59:48.838Z,37.81
2023-05-21T15:02:16.880Z,38.65
2023-05-21T15:04:46.413Z,40.22
2023-05-21T15:07:14.451Z,39.45
2023-05-21T15:09:42.457Z,38.48
2023-05-21T15:12:10.431Z,39.72
2023-05-21T15:14:38.886Z,39.33
2023-05-21T15:17:07.216Z,39.01
2023-05-21T15:19:35.398Z,38.81
2023-05-21T15:22:04.934Z,38.71
2023-05-21T15:24:34.089Z,39.34
2023-05-21T15:27:02.041Z,39.48
2023-05-21T15:29:29.994Z,40.14
2023-05-21T15:31:58.434Z,40.03
2023-05-21T15:34:26.739Z,40.86
2023-05-21T15:36:54.778Z,40.33
2023-05-21T15:39:24.138Z,40.36
2023-05-21T15:41:53.796Z,42.13
2023-05-21T15:44:21.926Z,41.66
2023-05-21T15:46:50.420Z,41.73
2023-05-21T15:49:18.566Z,41.62
2023-05-21T15:51:46.953Z,41.62
2023-05-21T15:54:14.927Z,41.61
2023-05-21T15:56:45.359Z,42.42
2023-05-21T15:59:13.440Z,44.48
2023-05-21T16:01:41.534Z,48.56
2023-05-21T16:04:09.699Z,52.46
2023-05-21T16:06:37.761Z,53.59
2023-05-21T16:09:05.861Z,53.97
2023-05-21T16:11:33.881Z,54.97
2023-05-21T16:14:03.204Z,57.35
2023-05-21T16:16:31.248Z,59.91
2023-05-21T16:18:59.309Z,59.93
2023-05-21T16:21:27.250Z,60.70
2023-05-21T16:23:55.245Z,62.02
2023-05-21T16:26:23.201Z,62.36
2023-05-21T16:28:51.206Z,64.01
2023-05-21T16:31:20.565Z,64.09
2023-05-21T16:33:48.519Z,63.06
2023-05-21T16:36:17.986Z,63.03
2023-05-21T16:38:46.056Z,63.45
2023-05-21T16:41:14.058Z,62.28
2023-05-21T16:43:42.070Z,62.68
2023-05-21T16:46:10.253Z,61.59
2023-05-21T16:48:40.873Z,61.14
2023-05-21T16:51:08.858Z,59.60
2023-05-21T16:53:36.812Z,60.53
2023-05-21T16:56:04.807Z,61.04
2023-05-21T16:58:33.736Z,61.01
2023-05-21T17:01:01.703Z,61.23
2023-05-21T17:03:32.058Z,61.23
2023-05-21T17:06:01.540Z,61.28
2023-05-21T17:08:29.510Z,61.83
2023-05-21T17:10:57.462Z,61.04
2023-05-21T17:13:25.523Z,61.42
2023-05-21T17:15:53.569Z,61.34
2023-05-21T17:18:21.491Z,61.07
2023-05-21T17:20:49.434Z,62.62
2023-05-21T17:23:18.823Z,60.95
2023-05-21T17:25:46.814Z,61.75
2023-05-21T17:28:14.797Z,61.25
2023-05-21T17:30:43.061Z,60.92
2023-05-21T17:33:12.278Z,61.10
2023-05-21T17:35:40.438Z,60.56
2023-05-21T17:38:08.482Z,60.63
2023-05-21T17:40:37.895Z,61.09
2023-05-21T17:43:07.465Z,60.84
2023-05-21T17:45:35.827Z,63.03
2023-05-21T17:48:04.120Z,61.71
2023-05-21T17:50:32.170Z,61.54
2023-05-21T17:53:00.453Z,61.79
2023-05-21T17:55:28.450Z,62.73
2023-05-21T17:57:57.789Z,62.34
2023-05-21T18:00:25.870Z,62.65
2023-05-21T18:02:53.831Z,63.05
2023-05-21T18:05:22.912Z,63.27
2023-05-21T18:07:50.917Z,64.17
2023-05-21T18:10:18.860Z,64.77
2023-05-21T18:12:47.271Z,65.04
2023-05-21T18:15:17.150Z,65.92
2023-05-21T18:17:45.522Z,66.37
2023-05-21T18:20:14.832Z,67.79
2023-05-21T18:22:42.807Z,69.09
2023-05-21T18:25:11.159Z,69.98
2023-05-21T18:27:39.154Z,69.62
2023-05-21T18:30:08.633Z,70.13
2023-05-21T18:32:39.523Z,70.31
2023-05-21T18:35:08.330Z,71.29
2023-05-21T18:37:37.380Z,71.24
2023-05-21T18:40:07.433Z,72.21
2023-05-21T18:42:35.900Z,73.59
2023-05-21T18:45:07.647Z,74.28
2023-05-21T18:47:39.081Z,74.57
2023-05-21T18:50:09.055Z,76.12
2023-05-21T18:52:37.053Z,75.07
2023-05-21T18:55:05.618Z,74.71
2023-05-21T18:57:34.817Z,76.02
2023-05-21T19:00:03.207Z,75.46
2023-05-21T19:02:31.458Z,76.46
2023-05-21T19:05:01.960Z,76.23
2023-05-21T19:07:30.160Z,76.78
2023-05-21T19:10:00.077Z,76.84
2023-05-21T19:12:29.457Z,76.56
2023-05-21T19:14:57.462Z,77.03
2023-05-21T19:17:25.474Z,77.86
2023-05-21T19:19:56.008Z,77.65
2023-05-21T19:22:26.053Z,78.33
2023-05-21T19:24:54.167Z,79.15
2023-05-21T19:27:22.507Z,78.80
2023-05-21T19:29:50.498Z,78.94
2023-05-21T19:32:18.825Z,79.86
2023-05-21T19:34:46.853Z,81.11
2023-05-21T19:37:14.783Z,80.45
2023-05-21T19:39:44.944Z,79.36
2023-05-21T19:42:12.926Z,80.04
2023-05-21T19:44:41.484Z,81.61
2023-05-21T19:47:09.838Z,80.94
2023-05-21T19:49:37.892Z,81.77
2023-05-21T19:52:06.662Z,80.72
2023-05-21T19:54:34.620Z,81.07
2023-05-21T19:57:03.981Z,80.73
2023-05-21T19:59:31.937Z,81.56
2023-05-21T20:01:59.964Z,81.85
2023-05-21T20:04:28.211Z,80.85
2023-05-21T20:06:56.158Z,80.55
2023-05-21T20:09:24.247Z,80.18
2023-05-21T20:11:52.754Z,80.85
2023-05-21T20:14:22.123Z,80.61
2023-05-21T20:16:50.099Z,80.78
2023-05-21T20:19:18.733Z,81.65
2023-05-21T20:21:46.858Z,81.59
2023-05-21T20:24:14.825Z,81.45
2023-05-21T20:26:45.025Z,83.16
2023-05-21T20:29:12.997Z,81.74
2023-05-21T20:31:42.372Z,82.25
2023-05-21T20:34:12.407Z,81.71
2023-05-21T20:36:41.445Z,81.86
2023-05-21T20:39:09.415Z,81.14
2023-05-21T20:41:38.836Z,83.47
2023-05-21T20:44:07.334Z,82.61
2023-05-21T20:46:38.396Z,83.18
2023-05-21T20:49:09.869Z,82.63
2023-05-21T20:51:37.968Z,83.91
2023-05-21T20:54:06.264Z,82.97
2023-05-21T20:56:41.975Z,84.03
2023-05-21T20:59:12.085Z,82.16
2023-05-21T21:01:41.295Z,83.52
2023-05-21T21:04:11.459Z,83.56
2023-05-21T21:06:40.552Z,84.50
2023-05-21T21:09:08.846Z,84.68
2023-05-21T21:11:37.061Z,84.51
2023-05-21T21:14:05.013Z,84.31
2023-05-21T21:16:33.240Z,84.46
2023-05-21T21:19:01.965Z,85.88
2023-05-21T21:21:31.863Z,86.29
2023-05-21T21:23:59.852Z,87.10
2023-05-21T21:26:27.814Z,87.86
2023-05-21T21:28:56.479Z,87.04
2023-05-21T21:31:25.107Z,86.84
2023-05-21T21:33:53.315Z,86.84
2023-05-21T21:36:21.436Z,86.64
2023-05-21T21:38:50.779Z,88.48
2023-05-21T21:41:20.390Z,87.62
2023-05-21T21:43:48.382Z,87.67
2023-05-21T21:46:16.791Z,87.23
2023-05-21T21:48:44.898Z,87.75
2023-05-21T21:51:14.091Z,87.28
2023-05-21T21:53:42.247Z,89.83
2023-05-21T21:56:11.975Z,88.64
2023-05-21T21:58:39.938Z,88.81
2023-05-21T22:01:07.998Z,89.13
2023-05-21T22:03:36.145Z,88.85
2023-05-21T22:06:04.110Z,88.81
2023-05-21T22:08:32.091Z,88.91
2023-05-21T22:11:01.347Z,88.93
2023-05-21T22:13:30.697Z,89.28
2023-05-21T22:15:58.650Z,88.92
2023-05-21T22:18:39.590Z,88.75
2023-05-21T22:21:09.754Z,88.76
2023-05-21T22:23:38.443Z,90.43
2023-05-21T22:26:06.825Z,89.77
2023-05-21T22:28:36.276Z,90.00
2023-05-21T22:31:04.364Z,92.14
2023-05-21T22:33:32.586Z,91.26
2023-05-21T22:36:00.550Z,93.01
2023-05-21T22:38:28.580Z,92.91
2023-05-21T22:40:56.709Z,92.03
2023-05-21T22:43:24.743Z,91.93
2023-05-21T22:45:54.091Z,91.91
2023-05-21T22:48:22.664Z,93.38
2023-05-21T22:50:53.508Z,92.55
2023-05-21T22:53:21.848Z,92.38
2023-05-21T22:55:50.077Z,91.72
2023-05-21T22:58:18.411Z,91.91
2023-05-21T23:00:46.903Z,92.07
2023-05-21T23:03:16.464Z,91.56
2023-05-21T23:05:45.293Z,91.64
2023-05-21T23:08:13.776Z,92.97
2023-05-21T23:10:41.931Z,93.21
2023-05-21T23:13:09.980Z,93.18
2023-05-21T23:15:39.067Z,93.38
2023-05-21T23:18:08.732Z,93.04
2023-05-21T23:20:40.907Z,93.50
2023-05-21T23:23:10.180Z,93.42
2023-05-21T23:25:38.316Z,93.83
2023-05-21T23:28:06.574Z,92.76
2023-05-21T23:30:34.642Z,91.84
2023-05-21T23:33:02.799Z,91.84
2023-05-21T23:35:30.804Z,91.70
2023-05-21T23:38:00.129Z,91.65
2023-05-21T23:40:28.105Z,91.89
2023-05-21T23:42:56.146Z,92.45
2023-05-21T23:45:24.140Z,92.83
2023-05-21T23:47:52.179Z,94.43
2023-05-21T23:50:20.163Z,94.23
2023-05-21T23:52:48.318Z,93.75
2023-05-21T23:55:17.948Z,93.53
2023-05-21T23:57:45.924Z,93.44
